createdAt,value
2018-02-14T00:01:00.538Z,16.53
2018-02-14T00:03:28.246Z,17.70
2018-02-14T00:05:55.901Z,16.00
2018-02-14T00:08:23.575Z,16.10
2018-02-14T00:10:51.206Z,17.87
2018-02-14T00:13:19.663Z,17.17
2018-02-14T00:15:47.346Z,17.43
2018-02-14T00:18:15.753Z,17.50
2018-02-14T00:20:43.421Z,17.70
2018-02-14T00:23:11.082Z,15.97
2018-02-14T00:25:38.713Z,17.40
2018-02-14T00:28:06.505Z,17.40
2018-02-14T00:30:34.213Z,17.37
2018-02-14T00:33:02.635Z,15.93
2018-02-14T00:35:30.312Z,17.43
2018-02-14T00:37:57.971Z,17.60
2018-02-14T00:40:25.606Z,18.10
2018-02-14T00:42:53.270Z,17.07
2018-02-14T00:45:20.946Z,17.87
2018-02-14T00:47:48.576Z,19.10
2018-02-14T00:50:16.266Z,18.33
2018-02-14T00:52:43.933Z,16.63
2018-02-14T00:55:11.607Z,18.57
2018-02-14T00:57:39.258Z,17.07
2018-02-14T01:00:07.055Z,16.80
2018-02-14T01:02:34.687Z,17.67
2018-02-14T01:05:02.476Z,16.40
2018-02-14T01:07:30.126Z,16.23
2018-02-14T01:09:57.772Z,17.23
2018-02-14T01:12:25.455Z,18.83
2018-02-14T01:14:53.109Z,17.63
2018-02-14T01:17:20.745Z,18.27
2018-02-14T01:22:50.191Z,17.13
2018-02-14T01:25:17.867Z,17.60
2018-02-14T01:27:46.284Z,16.90
2018-02-14T01:30:13.931Z,17.67
2018-02-14T01:32:41.621Z,17.87
2018-02-14T01:35:09.286Z,17.90
2018-02-14T01:37:36.913Z,17.30
2018-02-14T01:40:04.592Z,17.23
2018-02-14T01:42:32.254Z,18.63
2018-02-14T01:44:59.897Z,18.57
2018-02-14T01:47:29.356Z,16.30
2018-02-14T01:49:57.011Z,17.87
2018-02-14T01:52:24.652Z,17.10
2018-02-14T01:54:52.311Z,15.73
2018-02-14T01:57:20.004Z,18.30
2018-02-14T01:59:48.414Z,16.97
2018-02-14T02:02:16.127Z,17.70
2018-02-14T02:04:43.787Z,17.37
2018-02-14T02:07:11.439Z,16.53
2018-02-14T02:09:39.112Z,17.83
2018-02-14T02:12:06.788Z,15.50
2018-02-14T02:14:35.187Z,18.20
2018-02-14T02:17:02.848Z,17.17
2018-02-14T02:19:30.581Z,17.73
2018-02-14T02:21:59.030Z,16.90
2018-02-14T02:24:26.830Z,17.30
2018-02-14T02:26:55.292Z,17.93
2018-02-14T02:29:22.923Z,17.13
2018-02-14T02:31:50.578Z,17.40
2018-02-14T02:34:18.259Z,17.90
2018-02-14T02:36:45.891Z,17.13
2018-02-14T02:39:25.370Z,17.57
2018-02-14T02:41:53.016Z,17.77
2018-02-14T02:44:20.639Z,17.00
2018-02-14T02:46:48.291Z,17.60
2018-02-14T02:49:15.983Z,17.70
2018-02-14T02:51:43.616Z,17.20
2018-02-14T02:54:11.275Z,17.40
2018-02-14T02:56:38.935Z,18.90
2018-02-14T02:59:07.306Z,18.67
2018-02-14T03:01:35.040Z,17.57
2018-02-14T03:04:03.467Z,18.40
2018-02-14T03:06:31.128Z,18.30
2018-02-14T03:08:58.796Z,19.20
2018-02-14T03:11:26.480Z,16.90
2018-02-14T03:13:54.140Z,18.77
2018-02-14T03:16:21.796Z,17.67
2018-02-14T03:18:49.470Z,17.40
2018-02-14T03:21:17.095Z,18.37
2018-02-14T03:23:44.747Z,17.90
2018-02-14T03:26:12.406Z,18.83
2018-02-14T03:28:40.031Z,19.13
2018-02-14T03:31:08.458Z,18.47
2018-02-14T03:33:36.128Z,18.67
2018-02-14T03:36:03.811Z,18.60
2018-02-14T03:38:31.511Z,18.47
2018-02-14T03:40:59.252Z,17.23
2018-02-14T03:43:27.683Z,20.17
2018-02-14T03:45:55.403Z,17.90
2018-02-14T03:48:23.105Z,18.90
2018-02-14T03:50:50.757Z,18.97
2018-02-14T03:53:19.196Z,17.37
2018-02-14T03:55:47.653Z,17.57
2018-02-14T03:58:16.122Z,18.33
2018-02-14T04:00:43.803Z,17.77
2018-02-14T04:03:12.253Z,17.20
2018-02-14T04:05:39.904Z,18.27
2018-02-14T04:08:07.600Z,18.30
2018-02-14T04:10:36.029Z,17.57
2018-02-14T04:13:03.680Z,17.80
2018-02-14T04:15:31.383Z,19.73
2018-02-14T04:17:59.062Z,17.03
2018-02-14T04:20:27.499Z,18.67
2018-02-14T04:22:55.176Z,18.27
2018-02-14T04:25:22.838Z,17.93
2018-02-14T04:27:50.501Z,18.47
2018-02-14T04:30:21.659Z,18.10
2018-02-14T04:32:50.116Z,18.47
2018-02-14T04:35:17.757Z,19.30
2018-02-14T04:37:45.419Z,19.43
2018-02-14T04:40:13.086Z,17.97
2018-02-14T04:42:40.732Z,19.53
2018-02-14T04:45:08.517Z,19.40
2018-02-14T04:47:36.203Z,18.40
2018-02-14T04:50:04.615Z,19.97
2018-02-14T04:52:32.269Z,17.90
2018-02-14T04:54:59.928Z,18.00
2018-02-14T04:57:27.569Z,17.73
2018-02-14T04:59:56.008Z,17.80
2018-02-14T05:02:23.719Z,18.57
2018-02-14T05:04:52.116Z,18.07
2018-02-14T05:07:19.780Z,19.13
2018-02-14T05:09:47.438Z,17.23
2018-02-14T05:12:15.062Z,16.67
2018-02-14T05:14:43.484Z,17.00
2018-02-14T05:17:11.144Z,18.60
2018-02-14T05:19:38.776Z,17.37
2018-02-14T05:22:06.439Z,15.63
2018-02-14T05:24:34.133Z,17.03
2018-02-14T05:27:01.771Z,18.40
2018-02-14T05:29:29.450Z,17.67
2018-02-14T05:31:57.108Z,19.20
2018-02-14T05:34:24.731Z,16.93
2018-02-14T05:36:52.411Z,16.10
2018-02-14T05:39:20.080Z,17.37
2018-02-14T05:41:47.703Z,17.60
2018-02-14T05:44:16.160Z,17.30
2018-02-14T05:46:43.848Z,16.83
2018-02-14T05:49:11.496Z,18.33
2018-02-14T05:51:39.964Z,18.10
2018-02-14T05:54:07.657Z,18.40
2018-02-14T05:56:35.312Z,18.47
2018-02-14T05:59:03.772Z,18.33
2018-02-14T06:01:31.440Z,17.47
2018-02-14T06:03:59.887Z,16.90
2018-02-14T06:06:27.582Z,17.73
2018-02-14T06:08:56.075Z,17.33
2018-02-14T06:11:23.712Z,18.47
2018-02-14T06:13:52.162Z,19.27
2018-02-14T06:16:19.860Z,18.60
2018-02-14T06:18:48.247Z,19.33
2018-02-14T06:21:16.666Z,17.87
2018-02-14T06:23:44.327Z,17.60
2018-02-14T06:26:11.952Z,18.67
2018-02-14T06:28:39.619Z,18.87
2018-02-14T06:31:07.286Z,17.67
2018-02-14T06:33:34.951Z,17.50
2018-02-14T06:36:02.607Z,19.27
2018-02-14T06:38:30.254Z,15.67
2018-02-14T06:40:57.905Z,18.50
2018-02-14T06:43:25.561Z,19.40
2018-02-14T06:45:53.970Z,20.23
2018-02-14T06:48:22.384Z,18.73
2018-02-14T06:50:50.040Z,18.93
2018-02-14T06:53:17.703Z,21.70
2018-02-14T06:55:45.345Z,21.20
2018-02-14T06:58:13.014Z,19.20
2018-02-14T07:00:40.688Z,20.37
2018-02-14T07:03:08.339Z,19.23
2018-02-14T07:05:36.002Z,18.97
2018-02-14T07:08:03.693Z,21.27
2018-02-14T07:10:32.132Z,18.73
2018-02-14T07:12:59.893Z,21.50
2018-02-14T07:15:27.565Z,20.60
2018-02-14T07:17:55.244Z,20.63
2018-02-14T07:20:22.933Z,20.20
2018-02-14T07:22:50.602Z,20.40
2018-02-14T07:25:18.317Z,19.63
2018-02-14T07:27:45.994Z,20.93
2018-02-14T07:30:14.430Z,19.80
2018-02-14T07:32:42.129Z,19.47
2018-02-14T07:35:09.800Z,18.03
2018-02-14T07:37:38.715Z,17.77
2018-02-14T07:40:06.443Z,17.93
2018-02-14T07:42:34.912Z,16.00
2018-02-14T07:45:02.617Z,15.10
2018-02-14T07:47:30.292Z,15.13
2018-02-14T07:49:58.001Z,14.77
2018-02-14T07:52:26.451Z,15.13
2018-02-14T07:54:54.161Z,14.90
2018-02-14T07:57:22.606Z,17.80
2018-02-14T07:59:50.255Z,14.60
2018-02-14T08:02:18.951Z,14.17
2018-02-14T08:04:46.632Z,15.57
2018-02-14T08:07:14.349Z,15.13
2018-02-14T08:09:42.086Z,15.87
2018-02-14T08:12:09.784Z,14.57
2018-02-14T08:14:37.454Z,15.70
2018-02-14T08:17:05.153Z,15.07
2018-02-14T08:19:32.962Z,14.80
2018-02-14T08:22:00.607Z,15.00
2018-02-14T08:24:28.394Z,15.83
2018-02-14T08:26:56.151Z,15.30
2018-02-14T08:29:23.843Z,16.23
2018-02-14T08:31:51.548Z,14.43
2018-02-14T08:34:19.285Z,16.20
2018-02-14T08:36:46.930Z,14.50
2018-02-14T08:39:15.382Z,14.73
2018-02-14T08:41:43.062Z,14.57
2018-02-14T08:44:11.508Z,15.03
2018-02-14T08:46:39.244Z,14.70
2018-02-14T08:49:06.955Z,14.93
2018-02-14T08:51:34.590Z,15.90
2018-02-14T08:54:02.272Z,13.97
2018-02-14T08:56:29.982Z,14.20
2018-02-14T08:58:57.608Z,14.90
2018-02-14T09:01:26.052Z,14.10
2018-02-14T09:03:53.724Z,14.30
2018-02-14T09:06:21.631Z,14.30
2018-02-14T09:08:49.312Z,13.87
2018-02-14T09:11:16.997Z,14.27
2018-02-14T09:13:44.672Z,14.67
2018-02-14T09:16:12.355Z,14.70
2018-02-14T09:18:40.023Z,14.90
2018-02-14T09:21:08.438Z,14.83
2018-02-14T09:23:36.130Z,13.90
2018-02-14T09:26:03.797Z,13.93
2018-02-14T09:28:31.446Z,11.57
2018-02-14T09:30:59.171Z,11.43
2018-02-14T09:33:26.886Z,10.97
2018-02-14T09:35:54.554Z,10.53
2018-02-14T09:38:22.283Z,10.50
2018-02-14T09:40:49.943Z,10.50
2018-02-14T09:43:17.634Z,10.57
2018-02-14T09:45:45.303Z,10.23
2018-02-14T09:48:13.823Z,10.60
2018-02-14T09:50:41.493Z,7.03
2018-02-14T09:53:09.139Z,7.47
2018-02-14T09:55:36.833Z,7.07
2018-02-14T09:58:04.846Z,6.90
2018-02-14T10:00:33.303Z,6.50
2018-02-14T10:03:00.943Z,6.23
2018-02-14T10:05:28.710Z,4.40
2018-02-14T10:07:56.443Z,4.73
2018-02-14T10:10:24.901Z,5.60
2018-02-14T10:12:52.532Z,5.47
2018-02-14T10:15:21.143Z,5.03
2018-02-14T10:17:48.836Z,4.90
2018-02-14T10:20:16.464Z,4.60
2018-02-14T10:22:44.100Z,4.40
2018-02-14T10:25:12.726Z,4.93
2018-02-14T10:27:41.140Z,4.40
2018-02-14T10:30:08.843Z,4.90
2018-02-14T10:32:36.516Z,4.40
2018-02-14T10:35:04.192Z,4.60
2018-02-14T10:37:31.851Z,4.30
2018-02-14T10:39:59.596Z,5.67
2018-02-14T10:42:27.248Z,4.70
2018-02-14T10:44:54.909Z,4.83
2018-02-14T10:47:23.609Z,4.90
2018-02-14T10:49:51.251Z,4.40
2018-02-14T10:52:18.994Z,5.20
2018-02-14T10:54:46.650Z,5.70
2018-02-14T10:57:15.100Z,5.57
2018-02-14T10:59:42.764Z,6.17
2018-02-14T11:02:10.461Z,5.47
2018-02-14T11:04:44.852Z,6.33
2018-02-14T11:07:18.148Z,6.07
2018-02-14T11:09:45.804Z,6.73
2018-02-14T11:12:13.629Z,5.87
2018-02-14T11:14:41.287Z,7.70
2018-02-14T11:17:09.035Z,6.43
2018-02-14T11:19:36.710Z,7.27
2018-02-14T11:22:05.120Z,6.63
2018-02-14T11:24:32.796Z,7.00
2018-02-14T11:27:00.511Z,6.50
2018-02-14T11:29:28.200Z,7.20
2018-02-14T11:31:55.874Z,6.67
2018-02-14T11:34:23.595Z,6.97
2018-02-14T11:36:51.247Z,7.93
2018-02-14T11:39:19.691Z,6.73
2018-02-14T11:41:48.123Z,6.70
2018-02-14T11:44:15.809Z,6.20
2018-02-14T11:46:43.487Z,7.13
2018-02-14T11:49:11.984Z,6.67
2018-02-14T11:51:39.671Z,7.30
2018-02-14T11:54:07.364Z,7.63
2018-02-14T11:56:35.063Z,8.30
2018-02-14T11:59:02.735Z,8.63
2018-02-14T12:01:30.425Z,8.87
2018-02-14T12:03:58.135Z,8.87
2018-02-14T12:06:25.763Z,7.60
2018-02-14T12:08:53.437Z,8.70
2018-02-14T12:11:21.115Z,8.63
2018-02-14T12:13:49.521Z,8.17
2018-02-14T12:16:17.166Z,8.07
2018-02-14T12:18:45.606Z,8.43
2018-02-14T12:21:13.255Z,7.20
2018-02-14T12:23:40.920Z,7.77
2018-02-14T12:26:08.639Z,7.60
2018-02-14T12:28:36.264Z,7.90
2018-02-14T12:31:04.682Z,7.80
2018-02-14T12:33:32.385Z,7.40
2018-02-14T12:36:00.014Z,7.10
2018-02-14T12:38:28.437Z,7.93
2018-02-14T12:40:56.883Z,7.53
2018-02-14T12:43:24.591Z,8.00
2018-02-14T12:45:53.102Z,8.70
2018-02-14T12:48:20.772Z,9.40
2018-02-14T12:50:48.562Z,10.17
2018-02-14T12:53:16.328Z,10.13
2018-02-14T12:55:44.012Z,11.60
2018-02-14T12:58:12.396Z,10.60
2018-02-14T13:00:41.178Z,11.10
2018-02-14T13:03:08.877Z,11.10
2018-02-14T13:05:36.573Z,11.87
2018-02-14T13:08:04.275Z,12.27
2018-02-14T13:10:32.731Z,11.83
2018-02-14T13:13:00.383Z,11.80
2018-02-14T13:15:28.130Z,12.03
2018-02-14T13:17:55.812Z,11.87
2018-02-14T13:20:23.602Z,11.90
2018-02-14T13:22:51.385Z,11.63
2018-02-14T13:25:19.200Z,12.13
2018-02-14T13:27:46.897Z,12.23
2018-02-14T13:30:14.572Z,12.90
2018-02-14T13:32:42.261Z,13.07
2018-02-14T13:35:09.939Z,13.50
2018-02-14T13:37:37.596Z,13.33
2018-02-14T13:40:05.331Z,12.80
2018-02-14T13:42:32.983Z,13.07
2018-02-14T13:45:00.690Z,13.33
2018-02-14T13:47:28.779Z,13.27
2018-02-14T13:49:56.526Z,14.13
2018-02-14T13:52:24.999Z,12.93
2018-02-14T13:54:52.699Z,13.63
2018-02-14T13:57:20.388Z,12.37
2018-02-14T13:59:48.080Z,13.20
2018-02-14T14:02:16.578Z,15.03
2018-02-14T14:04:45.077Z,15.73
2018-02-14T14:07:12.772Z,13.97
2018-02-14T14:09:40.582Z,14.87
2018-02-14T14:12:09.046Z,13.93
2018-02-14T14:14:36.727Z,15.10
2018-02-14T14:17:04.537Z,15.40
2018-02-14T14:19:32.169Z,15.10
2018-02-14T14:21:59.867Z,14.83
2018-02-14T14:24:27.584Z,14.80
2018-02-14T14:26:55.215Z,15.23
2018-02-14T14:29:22.909Z,16.97
2018-02-14T14:31:50.575Z,16.73
2018-02-14T14:34:18.423Z,15.13
2018-02-14T14:36:46.104Z,16.00
2018-02-14T14:39:13.790Z,17.13
2018-02-14T14:41:41.446Z,16.50
2018-02-14T14:44:09.171Z,17.50
2018-02-14T14:46:36.883Z,16.30
2018-02-14T14:49:04.551Z,17.70
2018-02-14T14:51:32.251Z,17.80
2018-02-14T14:53:59.950Z,19.00
2018-02-14T14:56:27.614Z,18.77
2018-02-14T14:58:55.308Z,18.33
2018-02-14T15:01:22.996Z,20.40
2018-02-14T15:03:50.639Z,21.43
2018-02-14T15:06:19.127Z,19.80
2018-02-14T15:08:46.821Z,20.47
2018-02-14T15:11:14.534Z,21.00
2018-02-14T15:13:42.997Z,20.87
2018-02-14T15:16:10.663Z,19.90
2018-02-14T15:18:38.368Z,20.37
2018-02-14T15:21:06.110Z,21.23
2018-02-14T15:23:34.562Z,22.13
2018-02-14T15:26:02.228Z,21.70
2018-02-14T15:28:29.941Z,23.97
2018-02-14T15:30:57.616Z,21.37
2018-02-14T15:33:25.279Z,22.07
2018-02-14T15:35:53.000Z,23.10
2018-02-14T15:38:20.715Z,23.60
2018-02-14T15:40:48.396Z,21.90
2018-02-14T15:43:16.902Z,22.30
2018-02-14T15:45:44.576Z,22.70
2018-02-14T15:48:12.235Z,23.17
2018-02-14T15:50:40.026Z,22.30
2018-02-14T15:53:07.755Z,22.93
2018-02-14T15:55:35.424Z,23.17
2018-02-14T15:58:03.111Z,21.87
2018-02-14T16:00:31.678Z,22.40
2018-02-14T16:02:59.349Z,21.20
2018-02-14T16:05:27.051Z,21.60
2018-02-14T16:07:55.500Z,25.03
2018-02-14T16:10:23.231Z,24.50
2018-02-14T16:12:50.931Z,25.03
2018-02-14T16:15:18.615Z,32.60
2018-02-14T16:17:47.039Z,26.33
2018-02-14T16:20:14.728Z,29.27
2018-02-14T16:22:42.468Z,23.07
2018-02-14T16:25:10.132Z,23.27
2018-02-14T16:27:37.823Z,24.47
2018-02-14T16:30:05.555Z,22.33
2018-02-14T16:32:33.203Z,22.00
2018-02-14T16:35:00.861Z,25.27
2018-02-14T16:37:28.523Z,22.60
2018-02-14T16:39:56.562Z,25.70
2018-02-14T16:42:25.072Z,28.93
2018-02-14T16:44:52.748Z,25.83
2018-02-14T16:47:20.421Z,29.83
2018-02-14T16:49:48.097Z,23.03
2018-02-14T16:52:15.760Z,25.40
2018-02-14T16:54:43.399Z,24.10
2018-02-14T16:57:11.074Z,26.57
2018-02-14T16:59:38.738Z,25.20
2018-02-14T17:02:07.160Z,26.70
2018-02-14T17:04:34.987Z,24.53
2018-02-14T17:07:03.474Z,23.40
2018-02-14T17:09:31.147Z,24.90
2018-02-14T17:11:59.564Z,25.33
2018-02-14T17:14:27.212Z,27.93
2018-02-14T17:16:54.843Z,25.33
2018-02-14T17:19:23.314Z,27.10
2018-02-14T17:21:51.731Z,27.87
2018-02-14T17:24:19.361Z,24.60
2018-02-14T17:26:47.011Z,28.97
2018-02-14T17:29:15.434Z,27.47
2018-02-14T17:31:43.072Z,27.00
2018-02-14T17:34:10.730Z,26.40
2018-02-14T17:36:38.408Z,27.30
2018-02-14T17:39:06.052Z,26.30
2018-02-14T17:41:33.740Z,26.00
2018-02-14T17:44:03.184Z,25.73
2018-02-14T17:46:32.283Z,26.50
2018-02-14T17:49:01.831Z,28.37
2018-02-14T17:51:30.020Z,28.23
2018-02-14T17:53:58.669Z,28.07
2018-02-14T17:56:28.042Z,29.23
2018-02-14T17:58:57.573Z,40.23
2018-02-14T18:01:25.532Z,32.00
2018-02-14T18:03:55.061Z,25.90
2018-02-14T18:06:24.655Z,27.90
2018-02-14T18:08:54.240Z,26.67
2018-02-14T18:11:22.917Z,27.00
2018-02-14T18:13:50.869Z,30.70
2018-02-14T18:16:18.978Z,28.30
2018-02-14T18:18:47.153Z,28.33
2018-02-14T18:21:15.093Z,26.50
2018-02-14T18:23:43.635Z,28.07
2018-02-14T18:26:12.072Z,28.67
2018-02-14T18:28:40.465Z,28.87
2018-02-14T18:31:09.050Z,28.07
2018-02-14T18:33:37.342Z,27.60
2018-02-14T18:36:06.902Z,28.57
2018-02-14T18:38:35.310Z,29.27
2018-02-14T18:41:05.296Z,27.03
2018-02-14T18:43:33.481Z,27.53
2018-02-14T18:46:01.886Z,30.00
2018-02-14T18:48:32.239Z,29.67
2018-02-14T18:51:06.000Z,31.60
2018-02-14T18:53:34.272Z,29.90
2018-02-14T18:56:02.566Z,27.13
2018-02-14T18:58:30.782Z,29.30
2018-02-14T19:00:59.041Z,29.50
2018-02-14T19:03:28.411Z,29.10
2018-02-14T19:05:56.878Z,32.73
2018-02-14T19:08:26.151Z,30.40
2018-02-14T19:10:54.546Z,29.33
2018-02-14T19:13:22.991Z,31.30
2018-02-14T19:15:51.003Z,28.53
2018-02-14T19:18:19.399Z,30.23
2018-02-14T19:20:47.112Z,31.23
2018-02-14T19:23:14.903Z,30.40
2018-02-14T19:25:42.650Z,27.70
2018-02-14T19:28:10.456Z,28.67
2018-02-14T19:30:38.309Z,29.40
2018-02-14T19:33:06.127Z,29.90
2018-02-14T19:35:33.846Z,30.50
2018-02-14T19:38:01.575Z,31.37
2018-02-14T19:40:29.279Z,30.13
2018-02-14T19:42:57.720Z,30.83
2018-02-14T19:45:25.407Z,29.57
2018-02-14T19:47:53.110Z,30.10
2018-02-14T19:50:21.279Z,31.93
2018-02-14T19:52:49.119Z,30.53
2018-02-14T19:55:17.522Z,29.07
2018-02-14T19:57:46.202Z,29.83
2018-02-14T20:00:14.108Z,30.17
2018-02-14T20:02:42.084Z,30.30
2018-02-14T20:05:09.810Z,32.37
2018-02-14T20:07:37.504Z,31.10
2018-02-14T20:10:05.220Z,32.90
2018-02-14T20:12:33.069Z,33.27
2018-02-14T20:15:00.824Z,31.60
2018-02-14T20:17:29.307Z,30.70
2018-02-14T20:19:57.824Z,30.80
2018-02-14T20:22:25.592Z,35.60
2018-02-14T20:24:53.591Z,30.67
2018-02-14T20:27:21.420Z,32.90
2018-02-14T20:29:49.232Z,34.20
2018-02-14T20:32:16.937Z,32.27
2018-02-14T20:34:44.636Z,33.33
2018-02-14T20:37:12.300Z,33.03
2018-02-14T20:39:39.989Z,32.30
2018-02-14T20:42:08.520Z,31.63
2018-02-14T20:44:36.695Z,32.10
2018-02-14T20:47:04.554Z,32.77
2018-02-14T20:49:32.346Z,31.40
2018-02-14T20:52:00.126Z,32.90
2018-02-14T20:54:27.763Z,32.60
2018-02-14T20:56:55.518Z,32.13
2018-02-14T20:59:23.362Z,32.20
2018-02-14T21:01:51.135Z,31.17
2018-02-14T21:04:18.995Z,33.63
2018-02-14T21:06:46.795Z,30.83
2018-02-14T21:09:14.574Z,31.70
2018-02-14T21:11:42.300Z,35.23
2018-02-14T21:14:09.999Z,34.70
2018-02-14T21:16:38.387Z,35.93
2018-02-14T21:19:06.055Z,34.00
2018-02-14T21:21:33.791Z,33.10
2018-02-14T21:24:02.252Z,31.47
2018-02-14T21:26:30.092Z,32.03
2018-02-14T21:28:57.814Z,31.00
2018-02-14T21:31:25.464Z,30.43
2018-02-14T21:33:53.983Z,30.70
2018-02-14T21:36:21.645Z,31.27
2018-02-14T21:38:49.285Z,29.63
2018-02-14T21:41:18.435Z,29.10
2018-02-14T21:43:46.175Z,29.93
2018-02-14T21:46:13.944Z,30.23
2018-02-14T21:48:41.804Z,30.47
2018-02-14T21:51:09.700Z,30.97
2018-02-14T21:53:38.239Z,29.23
2018-02-14T21:56:06.061Z,30.13
2018-02-14T21:58:33.850Z,30.40
2018-02-14T22:01:01.737Z,29.47
2018-02-14T22:03:29.696Z,29.07
2018-02-14T22:05:57.662Z,29.97
2018-02-14T22:08:25.510Z,30.83
2018-02-14T22:10:53.527Z,29.00
2018-02-14T22:13:21.434Z,30.53
2018-02-14T22:15:49.449Z,29.47
2018-02-14T22:18:17.414Z,30.83
2018-02-14T22:20:45.396Z,30.33
2018-02-14T22:23:13.290Z,29.67
2018-02-14T22:25:41.686Z,31.47
2018-02-14T22:28:09.386Z,29.67
2018-02-14T22:30:37.027Z,30.10
2018-02-14T22:33:05.764Z,27.70
2018-02-14T22:35:34.230Z,29.57
2018-02-14T22:38:02.678Z,29.37
2018-02-14T22:40:30.735Z,29.73
2018-02-14T22:42:58.439Z,29.37
2018-02-14T22:45:26.074Z,31.27
2018-02-14T22:47:53.812Z,29.43
2018-02-14T22:50:21.472Z,28.53
2018-02-14T22:52:49.104Z,27.40
2018-02-14T22:55:16.764Z,27.90
2018-02-14T22:57:44.540Z,28.20
2018-02-14T23:00:12.232Z,26.37
2018-02-14T23:02:39.891Z,25.40
2018-02-14T23:05:07.649Z,29.23
2018-02-14T23:07:35.283Z,28.27
2018-02-14T23:10:02.999Z,29.07
2018-02-14T23:12:30.681Z,28.00
2018-02-14T23:14:59.076Z,27.20
2018-02-14T23:17:26.788Z,28.40
2018-02-14T23:19:54.452Z,28.20
2018-02-14T23:22:22.090Z,26.47
2018-02-14T23:24:49.752Z,27.50
2018-02-14T23:27:17.428Z,25.37
2018-02-14T23:29:45.076Z,26.57
2018-02-14T23:32:12.736Z,27.67
2018-02-14T23:34:40.408Z,25.70
2018-02-14T23:37:08.029Z,28.03
2018-02-14T23:39:35.724Z,26.43
2018-02-14T23:42:03.404Z,25.93
2018-02-14T23:44:31.069Z,25.83
2018-02-14T23:46:59.504Z,25.70
2018-02-14T23:49:27.163Z,26.40
2018-02-14T23:51:54.773Z,24.23
2018-02-14T23:54:23.216Z,24.03
2018-02-14T23:56:50.879Z,25.03
2018-02-14T23:59:18.536Z,22.57
